RPi & Temperatures at JO21ut

Last graph updates: Monday 27 March 2017 20:02 CEST

Sunrise: 07:20 & Sunset: 20:04 The Sun is currently not visible. [-3.48 degrees] and 149325422 Km from the Earth
Moonrise: 7:22 & Moonset: 19:18 New Moon The Moon is 373680 Km from the Earth
Find here more details on MARS.

20:19:42 up 21 days, 18:54, 0 users, load average: 0.53, 0.64, 0.67
Current CPU frequency is: 1000 Mhz
Current GPU temperature: 29.324°C
Current inside temperature is 20.1°C with a humidity of 52.5%
Second inside temperature is 19.7°C with a pressure of 1017.11 Hpa (29.8 inHg) and an uncorrected altitude of -31.84 m
ds18b20 now showing 19.8°C

All the sensors I use, DHT22 | BMP085 | MPU6050 | BH1750FVI | MMA7455 | HMC5883L | MPL3115A2 | DS1307 | HTU21 | AM2321 | DS3231 | INA219 , and it's current readout can be viewed here please be patient as it needs to read all sensors data. The page loads after about 10 seconds. In our forum more details can be found such as the used software/sources. Feel free to add yours also..


Pressure BMP085
Pressure BMP085
Pressure BMP085
Pressure BMP085
PI CPU Temp
Inet Volkel temp
Inside temp BMP085
Humidity BMP085
PI CPU Temp
Inet Volkel temp
Inside temp BMP085
Humidity BMP085
PI CPU Temp
Inet Volkel temp
Inside temp BMP085
Humidity BMP085
PI CPU Temp
Inet Volkel temp
Inside temp BMP085
Humidity BMP085
PI CPU Temp
Inet Volkel temp
Inside temp BMP085
Humidity BMP085
Inside light BH1750FV
Inside light BH1750FV
Inside light BH1750FV
Inside light BH1750FV
Inside light BH1750FV
Inside light BH1750FV
 

Sun & Moon height


Wijchen weather

Weer Widget
ScreenSaver yr.no

Sun Moon Earth


EHVK 271755Z AUTO VRB01KT 9999 NCD 14/M00 Q1020 BLU EHVK 271755Z AUTO VRB01KT 9999 NCD 14/M00 Q1020 BLU EHVK 271755Z AUTO VRB01KT 9999 NCD 14/M00 Q1020 BLU

Weather data from Volkel [NL] EHVK


25 minutes ago, at 17:55 UTC, the wind was blowing at a speed of 0.5 meters per second (1.2 miles per hour/1 knots) from variable directions (variable directions) in Volkel [EHVK], Netherlands. The temperature was 14 °C (57 °F) with a dewpoint of 0 °C (32 °F), and the pressure was 1,020 hPa (30.12 inHg). The relative humidity was 38.2%. . The visibility was >10 kilometers (>6.2 miles).




View code:

Contact me  |  My Raspberry PI forum